createdAt,value
2018-11-20T00:00:28.508Z,100091.19
2018-11-20T00:06:09.988Z,100067.70
2018-11-20T00:08:57.203Z,100066.03
2018-11-20T00:11:38.191Z,100063.87
2018-11-20T00:14:25.318Z,100070.17
2018-11-20T00:17:32.061Z,100060.91
2018-11-20T00:20:19.251Z,100063.38
2018-11-20T00:22:56.617Z,100056.58
2018-11-20T00:25:43.877Z,100042.86
2018-11-20T00:31:25.603Z,100037.38
2018-11-20T00:34:02.291Z,100038.22
2018-11-20T00:36:51.856Z,100036.89
2018-11-20T00:39:38.981Z,100051.75
2018-11-20T00:42:28.836Z,100034.23
2018-11-20T00:45:18.751Z,100033.59
2018-11-20T00:48:06.014Z,100027.45
2018-11-20T00:50:53.247Z,100034.41
2018-11-20T00:53:31.420Z,100025.14
2018-11-20T00:56:57.464Z,100024.97
2018-11-20T00:59:46.598Z,100014.39
2018-11-20T01:02:33.783Z,100010.59
2018-11-20T01:05:21.321Z,100016.02
2018-11-20T01:08:08.489Z,100019.98
2018-11-20T01:10:55.710Z,100008.60
2018-11-20T01:13:45.714Z,100019.02
2018-11-20T01:16:33.120Z,100015.36
2018-11-20T01:19:20.329Z,100019.33
2018-11-20T01:22:09.840Z,100021.49
2018-11-20T01:24:59.524Z,100019.67
2018-11-20T01:27:49.652Z,100017.88
2018-11-20T01:30:39.117Z,100022.66
2018-11-20T01:33:20.546Z,100020.36
2018-11-20T01:36:07.663Z,100029.44
2018-11-20T01:38:54.937Z,100022.34
2018-11-20T01:41:42.181Z,100018.69
2018-11-20T01:44:29.419Z,100023.84
2018-11-20T01:47:16.712Z,100016.39
2018-11-20T01:50:03.918Z,100015.73
2018-11-20T01:52:51.121Z,100008.10
2018-11-20T01:55:38.366Z,100009.11
2018-11-20T01:58:25.653Z,100007.30
2018-11-20T02:01:12.901Z,99985.30
2018-11-20T02:04:00.098Z,99991.07
2018-11-20T02:06:39.575Z,99976.03
2018-11-20T02:09:27.408Z,99976.87
2018-11-20T02:12:16.856Z,99975.86
2018-11-20T02:15:04.091Z,99972.38
2018-11-20T02:17:58.322Z,99956.50
2018-11-20T02:20:45.614Z,99965.94
2018-11-20T02:23:32.754Z,99956.36
2018-11-20T02:26:20.054Z,99957.51
2018-11-20T02:29:07.252Z,99959.66
2018-11-20T02:31:54.522Z,99946.75
2018-11-20T02:34:41.714Z,99949.74
2018-11-20T02:37:28.995Z,99942.47
2018-11-20T02:40:04.326Z,99937.66
2018-11-20T02:42:51.535Z,99931.71
2018-11-20T02:45:38.739Z,99936.34
2018-11-20T02:48:27.379Z,99937.66
2018-11-20T02:51:14.520Z,99920.46
2018-11-20T02:53:57.970Z,99925.93
2018-11-20T02:56:45.180Z,99927.25
2018-11-20T02:59:32.419Z,99925.09
2018-11-20T03:02:19.640Z,99923.28
2018-11-20T03:04:59.275Z,99926.25
2018-11-20T03:07:46.536Z,99938.81
2018-11-20T03:10:33.727Z,99921.45
2018-11-20T03:13:20.948Z,99920.30
2018-11-20T03:16:08.242Z,99926.73
2018-11-20T03:18:55.542Z,99916.98
2018-11-20T03:21:42.676Z,99913.36
2018-11-20T03:24:29.893Z,99910.55
2018-11-20T03:27:07.624Z,99915.49
2018-11-20T03:30:33.590Z,99910.72
2018-11-20T03:33:20.809Z,99916.67
2018-11-20T03:36:08.102Z,99907.41
2018-11-20T03:38:55.191Z,99899.30
2018-11-20T03:41:42.411Z,99898.16
2018-11-20T03:44:29.635Z,99902.26
2018-11-20T03:47:16.859Z,99904.09
2018-11-20T03:50:04.067Z,99891.67
2018-11-20T03:52:51.260Z,99897.14
2018-11-20T03:55:38.473Z,99891.84
2018-11-20T03:58:25.721Z,99890.35
2018-11-20T04:01:12.963Z,99885.90
2018-11-20T04:04:00.152Z,99897.62
2018-11-20T04:06:47.341Z,99896.83
2018-11-20T04:09:34.545Z,99898.15
2018-11-20T04:12:21.747Z,99897.97
2018-11-20T04:15:08.984Z,99895.50
2018-11-20T04:17:56.309Z,99886.55
2018-11-20T04:20:43.386Z,99880.95
2018-11-20T04:23:30.578Z,99881.61
2018-11-20T04:26:17.853Z,99882.74
2018-11-20T04:29:05.561Z,99867.84
2018-11-20T04:32:12.933Z,99866.38
2018-11-20T04:35:02.100Z,99863.56
2018-11-20T04:37:49.429Z,99859.11
2018-11-20T04:40:36.582Z,99853.47
2018-11-20T04:43:24.385Z,99856.95
2018-11-20T04:46:11.588Z,99865.39
2018-11-20T04:48:59.025Z,99852.64
2018-11-20T04:51:46.240Z,99853.81
2018-11-20T04:54:33.465Z,99856.28
2018-11-20T04:57:20.775Z,99854.78
2018-11-20T05:00:07.914Z,99845.36
2018-11-20T05:02:55.128Z,99834.80
2018-11-20T05:05:42.328Z,99834.45
2018-11-20T05:08:29.561Z,99840.56
2018-11-20T05:11:16.800Z,99841.05
2018-11-20T05:14:03.986Z,99851.15
2018-11-20T05:16:51.175Z,99845.89
2018-11-20T05:19:38.397Z,99863.40
2018-11-20T05:22:25.622Z,99846.68
2018-11-20T05:25:12.825Z,99850.67
2018-11-20T05:28:00.164Z,99846.02
2018-11-20T05:30:47.406Z,99846.34
2018-11-20T05:33:34.509Z,99839.73
2018-11-20T05:36:21.754Z,99833.13
2018-11-20T05:39:08.966Z,99839.24
2018-11-20T05:41:56.157Z,99841.72
2018-11-20T05:44:43.414Z,99839.55
2018-11-20T05:47:30.632Z,99839.42
2018-11-20T05:50:17.835Z,99835.42
2018-11-20T05:53:05.095Z,99828.16
2018-11-20T05:55:52.321Z,99839.74
2018-11-20T05:58:39.538Z,99832.14
2018-11-20T06:01:26.866Z,99825.35
2018-11-20T06:04:14.104Z,99836.77
2018-11-20T06:07:01.322Z,99838.41
2018-11-20T06:09:48.583Z,99840.08
2018-11-20T06:12:35.924Z,99848.80
2018-11-20T06:15:23.127Z,99848.47
2018-11-20T06:18:10.333Z,99863.03
2018-11-20T06:20:57.575Z,99858.57
2018-11-20T06:23:44.876Z,99864.84
2018-11-20T06:26:32.019Z,99860.70
2018-11-20T06:29:19.289Z,99856.25
2018-11-20T06:32:06.480Z,99854.26
2018-11-20T06:34:53.803Z,99857.91
2018-11-20T06:37:31.205Z,99856.07
2018-11-20T06:40:18.445Z,99852.24
2018-11-20T06:43:05.730Z,99852.08
2018-11-20T06:45:44.781Z,99841.67
2018-11-20T06:48:40.030Z,99856.05
2018-11-20T06:51:27.278Z,99852.23
2018-11-20T06:54:14.514Z,99853.89
2018-11-20T06:57:01.766Z,99853.58
2018-11-20T06:59:49.033Z,99852.09
2018-11-20T07:02:36.277Z,99852.94
2018-11-20T07:05:23.602Z,99864.02
2018-11-20T07:08:11.004Z,99864.02
2018-11-20T07:10:46.311Z,99853.78
2018-11-20T07:13:35.852Z,99859.23
2018-11-20T07:16:43.430Z,99861.22
2018-11-20T07:19:30.704Z,99861.51
2018-11-20T07:22:17.972Z,99860.69
2018-11-20T07:25:05.253Z,99857.39
2018-11-20T07:27:43.219Z,99862.38
2018-11-20T07:30:30.493Z,99856.91
2018-11-20T07:33:17.671Z,99859.39
2018-11-20T07:36:04.916Z,99861.89
2018-11-20T07:38:47.707Z,99862.87
2018-11-20T07:41:22.968Z,99863.69
2018-11-20T07:44:10.194Z,99857.08
2018-11-20T07:46:57.380Z,99861.05
2018-11-20T07:49:44.590Z,99851.61
2018-11-20T07:52:31.820Z,99852.75
2018-11-20T07:55:19.066Z,99847.14
2018-11-20T07:58:06.361Z,99843.48
2018-11-20T08:00:53.551Z,99850.44
2018-11-20T08:03:40.737Z,99845.64
2018-11-20T08:06:27.964Z,99851.27
2018-11-20T08:09:15.269Z,99844.45
2018-11-20T08:12:02.479Z,99844.79
2018-11-20T08:14:53.393Z,99848.63
2018-11-20T08:17:31.408Z,99842.96
2018-11-20T08:20:07.950Z,99845.12
2018-11-20T08:22:55.244Z,99845.74
2018-11-20T08:25:42.494Z,99845.44
2018-11-20T08:28:29.714Z,99838.00
2018-11-20T08:31:16.946Z,99833.99
2018-11-20T08:34:04.248Z,99832.80
2018-11-20T08:36:51.400Z,99835.94
2018-11-20T08:39:38.655Z,99835.44
2018-11-20T08:42:25.884Z,99827.31
2018-11-20T08:45:04.965Z,99832.59
2018-11-20T08:47:52.266Z,99831.81
2018-11-20T08:50:39.384Z,99836.59
2018-11-20T08:53:24.701Z,99835.61
2018-11-20T08:56:11.855Z,99837.73
2018-11-20T08:58:59.114Z,99835.73
2018-11-20T09:01:47.335Z,99827.08
2018-11-20T09:04:34.550Z,99824.65
2018-11-20T09:07:21.771Z,99826.78
2018-11-20T09:10:09.148Z,99817.33
2018-11-20T09:12:56.173Z,99821.23
2018-11-20T09:15:43.376Z,99821.23
2018-11-20T09:18:30.546Z,99812.80
2018-11-20T09:21:17.807Z,99809.13
2018-11-20T09:24:04.953Z,99814.56
2018-11-20T09:26:52.162Z,99813.38
2018-11-20T09:29:39.350Z,99802.93
2018-11-20T09:32:26.530Z,99814.52
2018-11-20T09:35:13.836Z,99809.03
2018-11-20T09:38:00.917Z,99812.67
2018-11-20T09:41:08.115Z,99810.54
2018-11-20T09:44:28.383Z,99800.88
2018-11-20T09:47:15.583Z,99788.94
2018-11-20T09:50:02.821Z,99785.15
2018-11-20T10:04:50.661Z,99800.32
2018-11-20T10:13:33.540Z,99770.59
2018-11-20T10:16:10.989Z,99776.52
2018-11-20T10:24:57.624Z,99777.80
2018-11-20T10:30:43.744Z,99780.27
2018-11-20T10:48:17.813Z,99765.80
2018-11-20T10:51:05.084Z,99763.78
2018-11-20T10:53:52.219Z,99760.56
2018-11-20T11:00:01.975Z,99760.45
2018-11-20T11:17:51.017Z,99763.33
2018-11-20T11:20:29.622Z,99754.88
2018-11-20T11:41:44.832Z,99729.63
2018-11-20T11:44:30.949Z,99741.44
2018-11-20T12:08:22.478Z,99734.50
2018-11-20T12:14:06.194Z,99745.03
2018-11-20T12:16:47.087Z,99747.75
2018-11-20T12:19:34.392Z,99752.38
2018-11-20T12:31:11.765Z,99752.27
2018-11-20T12:45:58.278Z,99754.13
2018-11-20T12:51:39.283Z,99754.58
2018-11-20T13:00:20.063Z,99751.48
2018-11-20T13:06:00.734Z,99745.00
2018-11-20T13:08:48.132Z,99748.63
2018-11-20T13:11:35.316Z,99754.39
2018-11-20T13:14:22.569Z,99748.04
2018-11-20T13:17:11.259Z,99749.56
2018-11-20T13:19:56.906Z,99755.46
2018-11-20T13:22:39.663Z,99748.89
2018-11-20T13:25:26.141Z,99750.01
2018-11-20T13:28:13.331Z,99751.34
2018-11-20T13:34:03.714Z,99742.49
2018-11-20T13:39:53.836Z,99743.32
2018-11-20T13:42:43.776Z,99748.32
2018-11-20T13:54:19.069Z,99765.13
2018-11-20T14:12:08.297Z,99764.78
2018-11-20T14:17:51.970Z,99771.02
2018-11-20T14:20:32.404Z,99775.19
2018-11-20T14:23:19.633Z,99779.74
2018-11-20T14:26:06.821Z,99782.99
2018-11-20T14:28:54.118Z,99776.02
2018-11-20T14:37:44.733Z,99796.19
2018-11-20T14:40:32.667Z,99798.39
2018-11-20T14:43:21.921Z,99799.41
2018-11-20T14:52:15.599Z,99803.39
2018-11-20T14:58:18.632Z,99803.66
2018-11-20T15:01:10.276Z,99800.62
2018-11-20T15:07:20.373Z,99807.59
2018-11-20T15:10:02.331Z,99806.08
2018-11-20T15:12:52.769Z,99803.16
2018-11-20T15:15:43.091Z,99812.11
2018-11-20T15:18:50.720Z,99816.95
2018-11-20T15:21:55.459Z,99816.62
2018-11-20T15:27:44.461Z,99812.13
2018-11-20T15:30:31.669Z,99811.99
2018-11-20T15:39:04.694Z,99807.60
2018-11-20T15:41:51.889Z,99809.58
2018-11-20T15:44:30.731Z,99810.22
2018-11-20T15:47:17.930Z,99810.90
2018-11-20T15:50:05.149Z,99817.27
2018-11-20T15:52:52.336Z,99818.77
2018-11-20T15:55:39.532Z,99818.20
2018-11-20T15:58:26.730Z,99825.59
2018-11-20T16:01:13.979Z,99830.94
2018-11-20T16:04:01.184Z,99837.50
2018-11-20T16:06:48.373Z,99838.43
2018-11-20T16:09:35.587Z,99841.81
2018-11-20T16:12:22.781Z,99842.01
2018-11-20T16:15:10.018Z,99847.16
2018-11-20T16:17:57.240Z,99843.83
2018-11-20T16:20:44.438Z,99852.28
2018-11-20T16:23:31.634Z,99850.45
2018-11-20T16:26:18.848Z,99850.58
2018-11-20T16:31:58.540Z,99837.72
2018-11-20T16:34:45.847Z,99846.05
2018-11-20T16:37:32.975Z,99844.08
2018-11-20T16:40:20.257Z,99839.08
2018-11-20T16:52:52.061Z,99827.30
2018-11-20T16:55:51.322Z,99831.00
2018-11-20T16:58:59.909Z,99824.70
2018-11-20T17:05:09.935Z,99828.04
2018-11-20T17:13:57.643Z,99840.31
2018-11-20T17:33:03.166Z,99925.10
2018-11-20T17:51:39.587Z,99929.03
2018-11-20T17:57:35.021Z,99924.09
2018-11-20T18:00:44.473Z,99911.16
2018-11-20T18:06:37.098Z,99911.84
2018-11-20T18:15:29.833Z,99889.42
2018-11-20T18:18:11.278Z,99898.89
2018-11-20T18:20:58.459Z,99890.12
2018-11-20T18:23:45.642Z,99894.63
2018-11-20T18:26:32.814Z,99900.89
2018-11-20T18:29:20.037Z,99893.15
2018-11-20T18:32:07.214Z,99890.62
2018-11-20T18:34:54.445Z,99897.59
2018-11-20T18:37:41.632Z,99900.70
2018-11-20T18:40:17.913Z,99909.66
2018-11-20T18:43:05.164Z,99917.11
2018-11-20T18:45:52.301Z,99920.05
2018-11-20T18:48:39.538Z,99937.90
2018-11-20T18:51:26.714Z,99946.38
2018-11-20T18:54:13.945Z,99961.07
2018-11-20T18:57:01.276Z,99973.68
2018-11-20T18:59:39.269Z,99980.78
2018-11-20T19:02:27.698Z,99983.33
2018-11-20T19:05:13.691Z,99988.27
2018-11-20T19:08:03.284Z,99991.53
2018-11-20T19:10:49.253Z,99979.38
2018-11-20T19:16:32.588Z,99971.68
2018-11-20T19:22:26.747Z,99961.98
2018-11-20T19:28:49.132Z,99990.39
2018-11-20T19:32:02.231Z,99990.20
2018-11-20T19:41:24.621Z,99998.63
2018-11-20T19:44:13.349Z,100000.68
2018-11-20T19:54:08.727Z,99989.73
2018-11-20T19:56:56.953Z,99995.17
2018-11-20T20:03:06.643Z,99991.24
2018-11-20T20:21:32.823Z,99993.58
2018-11-20T20:24:17.220Z,99989.15
2018-11-20T20:37:03.085Z,100014.53
2018-11-20T20:42:35.767Z,100037.13
2018-11-20T20:55:15.832Z,100044.47
2018-11-20T21:01:05.510Z,100039.65
2018-11-20T21:04:14.070Z,100045.80
2018-11-20T21:07:09.233Z,100033.56
2018-11-20T21:10:00.295Z,100041.16
2018-11-20T21:12:48.786Z,100046.46
2018-11-20T21:31:20.464Z,100074.96
2018-11-20T21:34:08.727Z,100064.16
2018-11-20T21:37:01.413Z,100049.58
2018-11-20T21:48:46.753Z,100119.17
2018-11-20T21:51:35.507Z,100117.34
2018-11-20T21:54:35.260Z,100134.56
2018-11-20T22:00:35.070Z,100127.59
2018-11-20T22:06:44.613Z,100132.37
2018-11-20T22:15:25.914Z,100135.52
2018-11-20T22:24:24.458Z,100148.45
2018-11-20T22:27:23.726Z,100154.08
2018-11-20T22:30:05.240Z,100143.95
2018-11-20T22:32:53.125Z,100136.70
2018-11-20T22:35:48.215Z,100134.02
2018-11-20T22:38:34.523Z,100134.55
2018-11-20T22:41:22.549Z,100137.70
2018-11-20T22:44:29.299Z,100153.47
2018-11-20T23:02:51.074Z,100126.80
2018-11-20T23:05:59.350Z,100117.52
2018-11-20T23:08:44.865Z,100121.98
2018-11-20T23:11:13.972Z,100142.21
2018-11-20T23:19:33.742Z,100145.18
2018-11-20T23:22:11.647Z,100134.75
2018-11-20T23:24:41.449Z,100137.06
2018-11-20T23:27:33.476Z,100125.14
2018-11-20T23:30:05.663Z,100124.30
2018-11-20T23:35:46.818Z,100118.86
2018-11-20T23:38:15.050Z,100112.24
2018-11-20T23:40:48.951Z,100110.74
2018-11-20T23:43:19.427Z,100113.70
2018-11-20T23:46:09.799Z,100114.05
2018-11-20T23:49:17.339Z,100111.58
2018-11-20T23:51:54.254Z,100115.20
2018-11-20T23:54:24.433Z,100116.70
2018-11-20T23:59:47.053Z,100098.47
